createdAt,value
2019-02-09T00:01:10.928Z,96834.42
2019-02-09T00:03:40.469Z,96839.23
2019-02-09T00:06:10.134Z,96833.33
2019-02-09T00:08:39.718Z,96836.77
2019-02-09T00:11:09.579Z,96833.33
2019-02-09T00:13:39.182Z,96830.56
2019-02-09T00:16:08.745Z,96826.64
2019-02-09T00:18:38.337Z,96827.58
2019-02-09T00:21:08.371Z,96821.67
2019-02-09T00:23:38.254Z,96826.53
2019-02-09T00:26:07.895Z,96825.76
2019-02-09T00:28:37.549Z,96830.93
2019-02-09T00:31:07.219Z,96830.77
2019-02-09T00:33:36.803Z,96830.77
2019-02-09T00:36:06.430Z,96829.94
2019-02-09T00:38:36.030Z,96832.39
2019-02-09T00:41:05.720Z,96837.82
2019-02-09T00:43:35.309Z,96838.87
2019-02-09T00:46:05.212Z,96839.96
2019-02-09T00:48:34.804Z,96835.00
2019-02-09T00:51:04.521Z,96832.86
2019-02-09T00:53:34.137Z,96823.46
2019-02-09T00:56:03.802Z,96826.77
2019-02-09T00:58:33.410Z,96823.98
2019-02-09T01:01:03.100Z,96822.67
2019-02-09T01:03:32.694Z,96825.67
2019-02-09T01:06:02.374Z,96831.72
2019-02-09T01:08:33.040Z,96827.97
2019-02-09T01:11:03.039Z,96822.67
2019-02-09T01:13:32.725Z,96819.55
2019-02-09T01:16:02.393Z,96822.68
2019-02-09T01:18:32.016Z,96813.49
2019-02-09T01:21:01.621Z,96812.86
2019-02-09T01:23:31.215Z,96802.66
2019-02-09T01:26:00.724Z,96795.70
2019-02-09T01:28:30.374Z,96803.72
2019-02-09T01:30:59.987Z,96808.95
2019-02-09T01:33:29.515Z,96809.77
2019-02-09T01:35:59.143Z,96804.62
2019-02-09T01:38:28.745Z,96795.70
2019-02-09T01:40:59.502Z,96795.13
2019-02-09T01:43:29.143Z,96791.56
2019-02-09T01:45:58.750Z,96798.19
2019-02-09T01:48:28.361Z,96790.36
2019-02-09T01:50:58.065Z,96783.97
2019-02-09T01:53:27.672Z,96790.13
2019-02-09T01:55:57.320Z,96786.16
2019-02-09T01:58:26.899Z,96784.98
2019-02-09T02:00:56.516Z,96787.05
2019-02-09T02:03:26.140Z,96791.56
2019-02-09T02:05:55.733Z,96791.89
2019-02-09T02:08:25.356Z,96788.53
2019-02-09T02:10:55.042Z,96782.43
2019-02-09T02:13:24.573Z,96782.17
2019-02-09T02:15:54.172Z,96779.92
2019-02-09T02:18:23.817Z,96778.56
2019-02-09T02:20:53.458Z,96766.83
2019-02-09T02:23:23.043Z,96764.73
2019-02-09T02:25:52.659Z,96762.17
2019-02-09T02:28:22.176Z,96765.59
2019-02-09T02:30:51.793Z,96770.70
2019-02-09T02:33:21.473Z,96765.41
2019-02-09T02:35:51.221Z,96771.47
2019-02-09T02:38:20.944Z,96766.88
2019-02-09T02:40:50.613Z,96754.56
2019-02-09T02:43:20.212Z,96754.14
2019-02-09T02:45:49.805Z,96746.89
2019-02-09T02:48:19.330Z,96739.03
2019-02-09T02:50:48.957Z,96736.25
2019-02-09T02:53:18.483Z,96735.41
2019-02-09T02:55:48.124Z,96728.67
2019-02-09T02:58:17.668Z,96716.78
2019-02-09T03:00:47.260Z,96719.45
2019-02-09T03:03:16.855Z,96712.19
2019-02-09T03:05:46.444Z,96706.77
2019-02-09T03:08:16.011Z,96717.52
2019-02-09T03:10:45.598Z,96713.55
2019-02-09T03:13:15.208Z,96707.34
2019-02-09T03:15:44.773Z,96720.59
2019-02-09T03:18:14.362Z,96713.19
2019-02-09T03:20:43.979Z,96711.00
2019-02-09T03:23:13.576Z,96717.05
2019-02-09T03:25:43.143Z,96710.47
2019-02-09T03:28:12.752Z,96716.26
2019-02-09T03:30:48.006Z,96715.17
2019-02-09T03:33:13.888Z,96700.25
2019-02-09T03:35:43.584Z,96703.95
2019-02-09T03:38:13.358Z,96713.70
2019-02-09T03:40:42.908Z,96715.79
2019-02-09T03:43:12.512Z,96706.91
2019-02-09T03:45:42.208Z,96708.67
2019-02-09T03:48:11.824Z,96702.21
2019-02-09T03:50:41.443Z,96693.77
2019-02-09T03:53:11.051Z,96691.12
2019-02-09T03:55:40.628Z,96691.59
2019-02-09T03:58:10.299Z,96690.59
2019-02-09T04:00:39.905Z,96683.30
2019-02-09T04:03:09.550Z,96676.15
2019-02-09T04:05:39.196Z,96674.84
2019-02-09T04:08:08.767Z,96677.77
2019-02-09T04:10:38.522Z,96693.31
2019-02-09T04:13:08.217Z,96679.02
2019-02-09T04:15:37.808Z,96676.20
2019-02-09T04:18:07.415Z,96672.13
2019-02-09T04:20:37.029Z,96672.55
2019-02-09T04:23:06.712Z,96677.45
2019-02-09T04:25:36.393Z,96681.00
2019-02-09T04:28:06.073Z,96676.63
2019-02-09T04:30:35.601Z,96685.70
2019-02-09T04:33:05.215Z,96689.24
2019-02-09T04:35:34.732Z,96689.30
2019-02-09T04:38:04.417Z,96693.20
2019-02-09T04:40:34.010Z,96688.30
2019-02-09T04:43:03.624Z,96686.52
2019-02-09T04:45:33.258Z,96682.72
2019-02-09T04:48:02.931Z,96683.14
2019-02-09T04:50:32.575Z,96688.92
2019-02-09T04:53:02.199Z,96689.81
2019-02-09T04:55:31.825Z,96687.26
2019-02-09T04:58:01.494Z,96683.40
2019-02-09T05:00:31.427Z,96695.82
2019-02-09T05:03:01.211Z,96690.54
2019-02-09T05:05:31.151Z,96699.10
2019-02-09T05:08:00.802Z,96686.73
2019-02-09T05:10:30.397Z,96690.76
2019-02-09T05:13:00.018Z,96703.90
2019-02-09T05:15:29.632Z,96706.41
2019-02-09T05:17:59.370Z,96713.39
2019-02-09T05:20:29.049Z,96712.30
2019-02-09T05:22:58.605Z,96723.20
2019-02-09T05:25:28.146Z,96738.70
2019-02-09T05:27:57.687Z,96745.90
2019-02-09T05:30:28.430Z,96736.66
2019-02-09T05:33:00.349Z,96748.41
2019-02-09T05:35:29.462Z,96758.78
2019-02-09T05:37:59.121Z,96767.43
2019-02-09T05:40:29.088Z,96776.45
2019-02-09T05:42:58.802Z,96777.66
2019-02-09T05:45:29.069Z,96761.54
2019-02-09T05:47:58.698Z,96767.64
2019-02-09T05:50:28.301Z,96772.66
2019-02-09T05:52:57.953Z,96790.08
2019-02-09T05:55:27.529Z,96792.35
2019-02-09T05:57:57.133Z,96795.77
2019-02-09T06:00:31.144Z,96787.13
2019-02-09T06:03:00.701Z,96795.70
2019-02-09T06:05:30.308Z,96794.66
2019-02-09T06:07:59.884Z,96790.72
2019-02-09T06:10:29.476Z,96784.16
2019-02-09T06:12:59.361Z,96796.59
2019-02-09T06:15:29.147Z,96804.35
2019-02-09T06:17:58.735Z,96810.92
2019-02-09T06:20:28.467Z,96811.07
2019-02-09T06:22:58.273Z,96818.94
2019-02-09T06:25:27.953Z,96823.28
2019-02-09T06:27:57.506Z,96828.23
2019-02-09T06:30:28.450Z,96828.16
2019-02-09T06:32:58.156Z,96828.30
2019-02-09T06:35:27.953Z,96829.93
2019-02-09T06:37:57.630Z,96821.23
2019-02-09T06:40:27.248Z,96815.97
2019-02-09T06:42:57.110Z,96815.19
2019-02-09T06:45:26.729Z,96820.76
2019-02-09T06:48:17.864Z,96820.25
2019-02-09T06:50:47.494Z,96819.99
2019-02-09T06:53:17.169Z,96829.09
2019-02-09T06:55:46.798Z,96828.19
2019-02-09T06:58:16.289Z,96828.79
2019-02-09T07:00:45.788Z,96833.67
2019-02-09T07:03:15.390Z,96849.69
2019-02-09T07:05:45.020Z,96848.61
2019-02-09T07:08:14.637Z,96849.18
2019-02-09T07:10:44.235Z,96852.68
2019-02-09T07:13:13.751Z,96854.65
2019-02-09T07:15:43.346Z,96849.28
2019-02-09T07:18:12.867Z,96851.97
2019-02-09T07:20:42.558Z,96853.10
2019-02-09T07:23:12.084Z,96849.62
2019-02-09T07:25:41.726Z,96857.25
2019-02-09T07:28:11.400Z,96861.34
2019-02-09T07:30:41.063Z,96877.89
2019-02-09T07:33:10.757Z,96878.59
2019-02-09T07:35:40.393Z,96882.31
2019-02-09T07:38:09.970Z,96882.55
2019-02-09T07:40:39.503Z,96881.95
2019-02-09T07:43:09.103Z,96882.69
2019-02-09T07:45:38.677Z,96886.81
2019-02-09T07:48:08.275Z,96893.34
2019-02-09T07:50:37.880Z,96892.05
2019-02-09T07:53:07.522Z,96902.00
2019-02-09T07:55:37.288Z,96899.12
2019-02-09T07:58:07.558Z,96900.50
2019-02-09T08:00:37.320Z,96895.75
2019-02-09T08:03:07.005Z,96894.17
2019-02-09T08:05:36.602Z,96888.27
2019-02-09T08:08:07.057Z,96891.78
2019-02-09T08:10:36.707Z,96892.86
2019-02-09T08:13:06.710Z,96885.91
2019-02-09T08:15:36.379Z,96895.30
2019-02-09T08:18:06.214Z,96887.56
2019-02-09T08:20:35.815Z,96888.97
2019-02-09T08:23:05.923Z,96898.06
2019-02-09T08:25:36.452Z,96889.92
2019-02-09T08:28:07.402Z,96890.81
2019-02-09T08:30:41.707Z,96898.13
2019-02-09T08:33:11.299Z,96897.41
2019-02-09T08:35:40.992Z,96878.45
2019-02-09T08:38:13.476Z,96886.91
2019-02-09T08:40:43.076Z,96899.39
2019-02-09T08:43:12.672Z,96893.23
2019-02-09T08:45:42.350Z,96886.55
2019-02-09T08:48:12.049Z,96886.92
2019-02-09T08:50:44.931Z,96884.62
2019-02-09T08:53:14.652Z,96874.16
2019-02-09T08:55:44.259Z,96876.18
2019-02-09T08:58:13.879Z,96879.92
2019-02-09T09:00:43.389Z,96878.91
2019-02-09T09:03:13.027Z,96875.65
2019-02-09T09:05:42.626Z,96885.34
2019-02-09T09:08:12.221Z,96879.89
2019-02-09T09:10:41.737Z,96885.50
2019-02-09T09:13:11.286Z,96884.76
2019-02-09T09:15:46.126Z,96890.94
2019-02-09T09:18:15.686Z,96894.46
2019-02-09T09:20:48.247Z,96904.99
2019-02-09T09:23:17.901Z,96909.13
2019-02-09T09:25:47.511Z,96905.83
2019-02-09T09:28:17.177Z,96904.95
2019-02-09T09:30:46.773Z,96910.15
2019-02-09T09:33:16.459Z,96902.99
2019-02-09T09:36:03.498Z,96912.25
2019-02-09T09:38:34.814Z,96913.03
2019-02-09T09:41:04.559Z,96911.44
2019-02-09T09:43:34.264Z,96909.77
2019-02-09T09:46:04.219Z,96912.90
2019-02-09T09:48:33.960Z,96916.39
2019-02-09T09:51:03.675Z,96923.56
2019-02-09T09:53:33.296Z,96923.78
2019-02-09T09:56:02.922Z,96931.77
2019-02-09T09:58:32.720Z,96926.53
2019-02-09T10:01:02.404Z,96930.25
2019-02-09T10:03:31.960Z,96925.94
2019-02-09T10:06:01.429Z,96930.09
2019-02-09T10:08:31.157Z,96934.72
2019-02-09T10:11:00.730Z,96938.63
2019-02-09T10:13:30.212Z,96948.53
2019-02-09T10:15:59.738Z,96945.59
2019-02-09T10:18:29.256Z,96941.88
2019-02-09T10:20:58.850Z,96951.61
2019-02-09T10:23:28.366Z,96947.09
2019-02-09T10:25:57.874Z,96945.73
2019-02-09T10:28:27.503Z,96956.92
2019-02-09T10:30:57.154Z,96948.38
2019-02-09T10:33:26.733Z,96944.91
2019-02-09T10:35:56.424Z,96944.37
2019-02-09T10:38:25.926Z,96937.89
2019-02-09T10:40:55.531Z,96944.70
2019-02-09T10:43:25.101Z,96944.52
2019-02-09T10:45:54.684Z,96937.02
2019-02-09T10:48:24.243Z,96938.09
2019-02-09T10:50:53.930Z,96948.41
2019-02-09T10:53:23.469Z,96941.79
2019-02-09T10:55:52.997Z,96941.09
2019-02-09T10:58:22.625Z,96948.02
2019-02-09T11:00:58.733Z,96955.88
2019-02-09T11:03:28.310Z,96960.78
2019-02-09T11:05:57.843Z,96954.33
2019-02-09T11:08:27.421Z,96957.64
2019-02-09T11:10:57.021Z,96959.13
2019-02-09T11:13:26.612Z,96960.00
2019-02-09T11:15:56.217Z,96953.66
2019-02-09T11:18:25.799Z,96955.03
2019-02-09T11:20:55.420Z,96954.98
2019-02-09T11:23:24.993Z,96956.62
2019-02-09T11:25:54.601Z,96959.28
2019-02-09T11:28:24.284Z,96956.91
2019-02-09T11:30:53.870Z,96952.39
2019-02-09T11:33:23.387Z,96955.56
2019-02-09T11:35:52.992Z,96959.14
2019-02-09T11:38:22.671Z,96965.89
2019-02-09T11:40:52.357Z,96957.75
2019-02-09T11:43:21.893Z,96960.49
2019-02-09T11:45:51.402Z,96942.39
2019-02-09T11:48:20.915Z,96941.48
2019-02-09T11:50:50.429Z,96947.42
2019-02-09T11:53:20.196Z,96952.61
2019-02-09T11:55:49.785Z,96944.98
2019-02-09T11:58:19.478Z,96941.36
2019-02-09T12:00:51.429Z,96965.61
2019-02-09T12:03:21.289Z,96947.47
2019-02-09T12:05:50.842Z,96940.09
2019-02-09T12:08:20.482Z,96936.70
2019-02-09T12:10:50.114Z,96926.83
2019-02-09T12:13:19.734Z,96928.64
2019-02-09T12:15:49.345Z,96933.39
2019-02-09T12:18:18.983Z,96938.38
2019-02-09T12:20:48.620Z,96938.67
2019-02-09T12:23:18.184Z,96940.70
2019-02-09T12:25:47.802Z,96937.05
2019-02-09T12:28:17.774Z,96943.16
2019-02-09T12:30:47.701Z,96936.08
2019-02-09T12:33:23.139Z,96923.25
2019-02-09T12:35:48.587Z,96920.47
2019-02-09T12:38:18.203Z,96924.98
2019-02-09T12:40:47.896Z,96927.89
2019-02-09T12:43:17.633Z,96916.25
2019-02-09T12:45:47.309Z,96916.14
2019-02-09T12:48:16.869Z,96912.58
2019-02-09T12:50:46.407Z,96906.59
2019-02-09T12:53:16.246Z,96908.70
2019-02-09T12:55:45.844Z,96907.96
2019-02-09T12:58:15.484Z,96914.14
2019-02-09T13:00:45.060Z,96906.23
2019-02-09T13:03:30.678Z,96914.02
2019-02-09T13:05:54.130Z,96909.92
2019-02-09T13:08:23.784Z,96906.52
2019-02-09T13:10:53.400Z,96907.77
2019-02-09T13:13:23.057Z,96909.56
2019-02-09T13:15:52.750Z,96910.80
2019-02-09T13:18:22.379Z,96902.76
2019-02-09T13:20:51.969Z,96906.23
2019-02-09T13:23:21.543Z,96913.18
2019-02-09T13:25:51.071Z,96911.66
2019-02-09T13:28:20.669Z,96911.59
2019-02-09T13:30:50.285Z,96923.52
2019-02-09T13:33:19.974Z,96921.44
2019-02-09T13:35:49.483Z,96918.66
2019-02-09T13:38:19.272Z,96920.58
2019-02-09T13:40:48.857Z,96917.11
2019-02-09T13:43:18.401Z,96922.71
2019-02-09T13:45:50.314Z,96914.58
2019-02-09T13:48:19.932Z,96909.59
2019-02-09T13:50:49.535Z,96923.31
2019-02-09T13:53:19.216Z,96911.86
2019-02-09T13:55:48.794Z,96918.53
2019-02-09T13:58:18.404Z,96921.03
2019-02-09T14:00:48.061Z,96920.25
2019-02-09T14:03:17.638Z,96917.00
2019-02-09T14:05:47.243Z,96919.84
2019-02-09T14:08:16.762Z,96921.66
2019-02-09T14:10:46.352Z,96923.94
2019-02-09T14:13:16.030Z,96915.27
2019-02-09T14:15:45.616Z,96921.80
2019-02-09T14:18:15.164Z,96923.05
2019-02-09T14:20:44.764Z,96921.87
2019-02-09T14:23:14.379Z,96926.24
2019-02-09T14:25:44.033Z,96926.00
2019-02-09T14:28:13.718Z,96930.85
2019-02-09T14:30:43.655Z,96929.19
2019-02-09T14:33:13.344Z,96928.50
2019-02-09T14:35:43.066Z,96929.74
2019-02-09T14:38:12.640Z,96935.42
2019-02-09T14:40:42.219Z,96943.95
2019-02-09T14:43:12.033Z,96952.75
2019-02-09T14:45:43.234Z,96948.47
2019-02-09T14:48:13.347Z,96950.05
2019-02-09T14:50:43.044Z,96953.92
2019-02-09T14:53:13.310Z,96944.82
2019-02-09T14:55:42.914Z,96952.61
2019-02-09T14:58:14.229Z,96950.11
2019-02-09T15:00:51.755Z,96946.13
2019-02-09T15:03:26.948Z,96948.69
2019-02-09T15:05:52.837Z,96950.63
2019-02-09T15:08:22.734Z,96953.38
2019-02-09T15:10:52.584Z,96951.35
2019-02-09T15:13:22.290Z,96955.82
2019-02-09T15:16:16.528Z,96961.16
2019-02-09T15:18:46.119Z,96956.64
2019-02-09T15:21:15.744Z,96960.53
2019-02-09T15:23:45.310Z,96970.59
2019-02-09T15:26:14.899Z,96969.69
2019-02-09T15:28:44.648Z,96968.95
2019-02-09T15:31:14.286Z,96973.08
2019-02-09T15:33:43.999Z,96973.80
2019-02-09T15:36:13.675Z,96979.48
2019-02-09T15:38:43.269Z,96980.91
2019-02-09T15:41:12.954Z,96979.78
2019-02-09T15:43:42.532Z,96992.20
2019-02-09T15:46:12.090Z,96989.94
2019-02-09T15:48:41.705Z,96989.52
2019-02-09T15:51:11.281Z,96993.45
2019-02-09T15:53:40.799Z,96987.93
2019-02-09T15:56:10.471Z,96981.23
2019-02-09T15:58:40.047Z,96983.81
2019-02-09T16:01:09.595Z,96983.83
2019-02-09T16:03:39.246Z,96978.95
2019-02-09T16:06:08.871Z,96983.54
2019-02-09T16:08:38.457Z,96984.68
2019-02-09T16:11:08.114Z,96988.50
2019-02-09T16:13:37.668Z,96984.92
2019-02-09T16:16:08.309Z,96989.92
2019-02-09T16:18:37.824Z,96993.37
2019-02-09T16:21:07.355Z,96999.92
2019-02-09T16:23:36.960Z,97009.12
2019-02-09T16:26:06.632Z,97009.10
2019-02-09T16:28:36.198Z,97016.98
2019-02-09T16:31:05.859Z,97013.89
2019-02-09T16:33:35.472Z,97016.52
2019-02-09T16:36:05.315Z,97010.78
2019-02-09T16:38:34.928Z,97016.77
2019-02-09T16:41:04.505Z,97014.61
2019-02-09T16:43:34.026Z,97012.19
2019-02-09T16:46:03.670Z,97018.90
2019-02-09T16:48:33.244Z,97020.58
2019-02-09T16:51:02.871Z,97015.80
2019-02-09T16:53:32.409Z,97016.89
2019-02-09T16:56:02.033Z,97010.69
2019-02-09T16:58:31.681Z,97016.42
2019-02-09T17:01:01.301Z,97016.79
2019-02-09T17:03:30.866Z,97019.42
2019-02-09T17:06:15.248Z,97027.09
2019-02-09T17:08:44.924Z,97019.94
2019-02-09T17:11:14.432Z,97027.09
2019-02-09T17:13:43.930Z,97031.16
2019-02-09T17:16:13.682Z,97034.23
2019-02-09T17:18:43.241Z,97030.65
2019-02-09T17:21:12.779Z,97029.45
2019-02-09T17:23:42.384Z,97032.83
2019-02-09T17:26:11.915Z,97033.27
2019-02-09T17:28:41.506Z,97044.11
2019-02-09T17:31:11.011Z,97048.63
2019-02-09T17:33:40.576Z,97045.66
2019-02-09T17:36:10.254Z,97036.81
2019-02-09T17:38:39.811Z,97044.55
2019-02-09T17:41:09.337Z,97047.89
2019-02-09T17:43:38.980Z,97041.06
2019-02-09T17:46:14.411Z,97041.51
2019-02-09T17:48:44.025Z,97043.27
2019-02-09T17:51:13.656Z,97053.95
2019-02-09T17:53:43.194Z,97047.81
2019-02-09T17:56:12.787Z,97036.27
2019-02-09T17:58:42.372Z,97043.45
2019-02-09T18:01:13.412Z,97048.92
2019-02-09T18:03:43.020Z,97047.72
2019-02-09T18:06:12.708Z,97042.81
2019-02-09T18:08:42.487Z,97046.34
2019-02-09T18:11:12.127Z,97042.91
2019-02-09T18:13:41.808Z,97038.70
2019-02-09T18:16:11.386Z,97033.80
2019-02-09T18:18:41.023Z,97037.45
2019-02-09T18:21:10.687Z,97043.66
2019-02-09T18:23:40.270Z,97040.86
2019-02-09T18:26:10.013Z,97050.09
2019-02-09T18:28:39.511Z,97048.90
2019-02-09T18:31:09.130Z,97053.42
2019-02-09T18:33:38.721Z,97049.26
2019-02-09T18:36:08.315Z,97055.25
2019-02-09T18:38:37.842Z,97058.20
2019-02-09T18:41:07.610Z,97051.66
2019-02-09T18:43:37.139Z,97056.31
2019-02-09T18:46:06.745Z,97049.66
2019-02-09T18:48:36.510Z,97050.62
2019-02-09T18:51:06.273Z,97050.81
2019-02-09T18:53:35.873Z,97050.52
2019-02-09T18:56:05.732Z,97048.05
2019-02-09T18:58:35.239Z,97049.09
2019-02-09T19:01:05.114Z,97048.45
2019-02-09T19:03:34.718Z,97051.19
2019-02-09T19:06:04.394Z,97054.45
2019-02-09T19:08:33.963Z,97052.87
2019-02-09T19:11:03.539Z,97058.04
2019-02-09T19:13:33.115Z,97049.55
2019-02-09T19:16:02.840Z,97060.45
2019-02-09T19:18:32.493Z,97058.37
2019-02-09T19:21:03.240Z,97066.73
2019-02-09T19:23:32.863Z,97059.36
2019-02-09T19:26:02.464Z,97057.58
2019-02-09T19:28:32.062Z,97050.77
2019-02-09T19:31:01.685Z,97053.28
2019-02-09T19:33:31.300Z,97053.17
2019-02-09T19:36:00.866Z,97058.30
2019-02-09T19:38:30.444Z,97059.05
2019-02-09T19:41:00.037Z,97056.94
2019-02-09T19:43:29.668Z,97058.77
2019-02-09T19:45:59.373Z,97061.49
2019-02-09T19:48:28.977Z,97058.77
2019-02-09T19:50:58.511Z,97055.38
2019-02-09T19:53:28.027Z,97057.31
2019-02-09T19:55:57.618Z,97050.68
2019-02-09T19:58:27.228Z,97045.45
2019-02-09T20:00:56.812Z,97046.33
2019-02-09T20:03:26.419Z,97049.46
2019-02-09T20:05:55.990Z,97046.53
2019-02-09T20:08:25.528Z,97047.21
2019-02-09T20:10:55.091Z,97051.51
2019-02-09T20:13:24.588Z,97054.38
2019-02-09T20:15:54.125Z,97054.22
2019-02-09T20:18:23.854Z,97051.14
2019-02-09T20:20:53.368Z,97057.46
2019-02-09T20:23:22.923Z,97061.75
2019-02-09T20:25:52.499Z,97065.37
2019-02-09T20:28:22.028Z,97066.46
2019-02-09T20:30:51.549Z,97071.75
2019-02-09T20:33:21.193Z,97068.87
2019-02-09T20:35:50.812Z,97070.28
2019-02-09T20:38:20.532Z,97077.29
2019-02-09T20:41:02.542Z,97079.44
2019-02-09T20:43:32.103Z,97065.94
2019-02-09T20:46:01.619Z,97069.81
2019-02-09T20:48:31.250Z,97073.21
2019-02-09T20:51:00.872Z,97071.64
2019-02-09T20:53:30.422Z,97069.13
2019-02-09T20:56:00.005Z,97068.77
2019-02-09T20:58:29.614Z,97070.49
2019-02-09T21:00:59.221Z,97073.30
2019-02-09T21:03:28.710Z,97069.23
2019-02-09T21:05:58.323Z,97072.22
2019-02-09T21:08:27.969Z,97066.63
2019-02-09T21:10:57.633Z,97073.16
2019-02-09T21:13:27.226Z,97076.45
2019-02-09T21:15:56.867Z,97075.09
2019-02-09T21:18:26.500Z,97065.89
2019-02-09T21:20:56.103Z,97075.41
2019-02-09T21:23:25.752Z,97071.91
2019-02-09T21:25:55.454Z,97077.71
2019-02-09T21:28:24.938Z,97074.05
2019-02-09T21:30:54.617Z,97070.38
2019-02-09T21:33:24.271Z,97075.87
2019-02-09T21:35:53.931Z,97078.69
2019-02-09T21:38:23.455Z,97074.56
2019-02-09T21:40:53.004Z,97076.23
2019-02-09T21:43:22.590Z,97083.02
2019-02-09T21:45:52.102Z,97083.53
2019-02-09T21:48:21.747Z,97080.05
2019-02-09T21:50:51.307Z,97085.14
2019-02-09T21:53:20.848Z,97091.30
2019-02-09T21:55:50.445Z,97092.78
2019-02-09T21:58:20.033Z,97098.88
2019-02-09T22:00:49.646Z,97095.22
2019-02-09T22:03:19.146Z,97086.22
2019-02-09T22:05:51.981Z,97083.27
2019-02-09T22:08:20.407Z,97077.59
2019-02-09T22:10:50.000Z,97079.02
2019-02-09T22:13:19.880Z,97075.87
2019-02-09T22:15:49.388Z,97080.09
2019-02-09T22:18:18.894Z,97086.18
2019-02-09T22:20:52.863Z,97075.69
2019-02-09T22:23:19.886Z,97066.02
2019-02-09T22:25:49.397Z,97067.27
2019-02-09T22:28:18.904Z,97062.60
2019-02-09T22:30:48.534Z,97070.70
2019-02-09T22:33:24.422Z,97062.47
2019-02-09T22:35:49.407Z,97064.01
2019-02-09T22:38:18.924Z,97052.98
2019-02-09T22:40:48.462Z,97049.23
2019-02-09T22:43:18.019Z,97052.37
2019-02-09T22:45:47.599Z,97060.68
2019-02-09T22:48:17.185Z,97057.28
2019-02-09T22:50:47.376Z,97059.41
2019-02-09T22:53:17.022Z,97051.37
2019-02-09T22:55:46.616Z,97044.17
2019-02-09T22:58:16.424Z,97041.66
2019-02-09T23:01:05.498Z,97031.16
2019-02-09T23:03:42.222Z,97036.18
2019-02-09T23:06:40.362Z,97035.23
2019-02-09T23:09:13.582Z,97037.75
2019-02-09T23:11:43.190Z,97042.30
2019-02-09T23:14:12.863Z,97035.81
2019-02-09T23:16:42.411Z,97034.34
2019-02-09T23:19:11.990Z,97036.75
2019-02-09T23:21:41.579Z,97035.19
2019-02-09T23:24:11.167Z,97020.61
2019-02-09T23:26:40.686Z,97026.14
2019-02-09T23:29:10.201Z,97019.66
2019-02-09T23:31:39.751Z,97027.66
2019-02-09T23:34:09.372Z,97033.92
2019-02-09T23:36:38.989Z,97035.34
2019-02-09T23:39:08.574Z,97031.77
2019-02-09T23:41:38.128Z,97045.69
2019-02-09T23:44:07.634Z,97041.31
2019-02-09T23:46:37.232Z,97040.88
2019-02-09T23:49:06.761Z,97039.89
2019-02-09T23:51:36.331Z,97030.78
2019-02-09T23:54:05.908Z,97032.98
2019-02-09T23:56:35.486Z,97025.98
2019-02-09T23:59:05.086Z,97018.45
